sensor_id;sensor_type;location;lat;lon;timestamp;temperature;humidity
13642;DHT22;6894;52.196;9.904;2023-03-16T00:00:09;1.40;1.00
13642;DHT22;6894;52.196;9.904;2023-03-16T00:02:38;1.40;1.00
13642;DHT22;6894;52.196;9.904;2023-03-16T00:05:05;1.40;1.00
13642;DHT22;6894;52.196;9.904;2023-03-16T00:07:32;1.40;1.00
13642;DHT22;6894;52.196;9.904;2023-03-16T00:09:59;1.40;1.00
13642;DHT22;6894;52.196;9.904;2023-03-16T00:12:26;1.40;1.00
13642;DHT22;6894;52.196;9.904;2023-03-16T00:14:53;1.30;1.00
13642;DHT22;6894;52.196;9.904;2023-03-16T00:17:21;1.50;1.00
13642;DHT22;6894;52.196;9.904;2023-03-16T00:19:49;1.30;1.00
13642;DHT22;6894;52.196;9.904;2023-03-16T00:22:19;1.30;1.00
13642;DHT22;6894;52.196;9.904;2023-03-16T00:24:47;1.20;1.00
13642;DHT22;6894;52.196;9.904;2023-03-16T00:27:14;1.20;1.00
13642;DHT22;6894;52.196;9.904;2023-03-16T00:29:42;1.20;1.00
13642;DHT22;6894;52.196;9.904;2023-03-16T00:32:13;1.20;1.00
13642;DHT22;6894;52.196;9.904;2023-03-16T00:34:42;1.30;1.00
13642;DHT22;6894;52.196;9.904;2023-03-16T00:37:10;1.30;1.00
13642;DHT22;6894;52.196;9.904;2023-03-16T00:39:39;1.30;1.00
13642;DHT22;6894;52.196;9.904;2023-03-16T00:42:06;1.20;1.00
13642;DHT22;6894;52.196;9.904;2023-03-16T00:44:33;1.30;1.00
13642;DHT22;6894;52.196;9.904;2023-03-16T00:47:00;1.20;1.00
13642;DHT22;6894;52.196;9.904;2023-03-16T00:49:27;1.30;1.00
13642;DHT22;6894;52.196;9.904;2023-03-16T00:51:55;1.30;1.00
13642;DHT22;6894;52.196;9.904;2023-03-16T00:54:22;1.30;1.00
13642;DHT22;6894;52.196;9.904;2023-03-16T00:56:48;1.30;1.00
13642;DHT22;6894;52.196;9.904;2023-03-16T00:59:15;1.30;1.00
13642;DHT22;6894;52.196;9.904;2023-03-16T01:01:44;1.20;1.00
13642;DHT22;6894;52.196;9.904;2023-03-16T01:04:11;1.20;1.00
13642;DHT22;6894;52.196;9.904;2023-03-16T01:06:38;1.30;1.00
13642;DHT22;6894;52.196;9.904;2023-03-16T01:09:07;1.20;1.00
13642;DHT22;6894;52.196;9.904;2023-03-16T01:11:34;1.20;1.00
13642;DHT22;6894;52.196;9.904;2023-03-16T01:14:00;1.20;1.00
13642;DHT22;6894;52.196;9.904;2023-03-16T01:16:28;1.20;1.00
13642;DHT22;6894;52.196;9.904;2023-03-16T01:18:58;1.30;1.00
13642;DHT22;6894;52.196;9.904;2023-03-16T01:21:26;1.40;1.00
13642;DHT22;6894;52.196;9.904;2023-03-16T01:23:53;1.50;1.00
13642;DHT22;6894;52.196;9.904;2023-03-16T01:26:21;1.60;99.90
13642;DHT22;6894;52.196;9.904;2023-03-16T01:28:49;1.50;99.90
13642;DHT22;6894;52.196;9.904;2023-03-16T01:31:16;1.50;1.00
13642;DHT22;6894;52.196;9.904;2023-03-16T01:33:43;1.40;1.00
13642;DHT22;6894;52.196;9.904;2023-03-16T01:36:12;1.40;1.00
13642;DHT22;6894;52.196;9.904;2023-03-16T01:38:39;1.30;1.00
13642;DHT22;6894;52.196;9.904;2023-03-16T01:41:06;1.20;1.00
13642;DHT22;6894;52.196;9.904;2023-03-16T01:43:37;1.20;1.00
13642;DHT22;6894;52.196;9.904;2023-03-16T01:46:15;1.20;1.00
13642;DHT22;6894;52.196;9.904;2023-03-16T01:48:49;1.20;1.00
13642;DHT22;6894;52.196;9.904;2023-03-16T01:51:20;1.10;1.00
13642;DHT22;6894;52.196;9.904;2023-03-16T01:53:50;1.20;1.00
13642;DHT22;6894;52.196;9.904;2023-03-16T01:56:22;1.20;1.00
13642;DHT22;6894;52.196;9.904;2023-03-16T01:58:52;1.10;1.00
13642;DHT22;6894;52.196;9.904;2023-03-16T02:01:24;1.10;1.00
13642;DHT22;6894;52.196;9.904;2023-03-16T02:03:54;1.10;1.00
13642;DHT22;6894;52.196;9.904;2023-03-16T02:06:22;1.10;1.00
13642;DHT22;6894;52.196;9.904;2023-03-16T02:08:49;1.10;1.00
13642;DHT22;6894;52.196;9.904;2023-03-16T02:11:20;1.00;1.00
13642;DHT22;6894;52.196;9.904;2023-03-16T02:13:47;1.00;1.00
13642;DHT22;6894;52.196;9.904;2023-03-16T02:16:17;1.10;1.00
13642;DHT22;6894;52.196;9.904;2023-03-16T02:18:44;1.10;1.00
13642;DHT22;6894;52.196;9.904;2023-03-16T02:21:15;1.10;1.00
13642;DHT22;6894;52.196;9.904;2023-03-16T02:23:44;1.10;1.00
13642;DHT22;6894;52.196;9.904;2023-03-16T02:26:15;1.10;1.00
13642;DHT22;6894;52.196;9.904;2023-03-16T02:28:56;1.10;1.00
13642;DHT22;6894;52.196;9.904;2023-03-16T02:31:28;1.10;1.00
13642;DHT22;6894;52.196;9.904;2023-03-16T02:33:55;1.20;1.00
13642;DHT22;6894;52.196;9.904;2023-03-16T02:36:22;1.10;1.00
13642;DHT22;6894;52.196;9.904;2023-03-16T02:38:49;1.10;1.00
13642;DHT22;6894;52.196;9.904;2023-03-16T02:41:18;1.00;1.00
13642;DHT22;6894;52.196;9.904;2023-03-16T02:43:47;1.00;1.00
13642;DHT22;6894;52.196;9.904;2023-03-16T02:46:17;1.00;1.00
13642;DHT22;6894;52.196;9.904;2023-03-16T02:48:51;0.90;1.00
13642;DHT22;6894;52.196;9.904;2023-03-16T02:51:20;0.80;1.00
13642;DHT22;6894;52.196;9.904;2023-03-16T02:53:47;0.80;1.00
13642;DHT22;6894;52.196;9.904;2023-03-16T02:56:14;0.80;1.00
13642;DHT22;6894;52.196;9.904;2023-03-16T02:58:40;0.80;1.00
13642;DHT22;6894;52.196;9.904;2023-03-16T03:01:07;0.80;1.00
13642;DHT22;6894;52.196;9.904;2023-03-16T03:03:34;0.70;1.00
13642;DHT22;6894;52.196;9.904;2023-03-16T03:06:02;0.80;1.00
13642;DHT22;6894;52.196;9.904;2023-03-16T03:08:29;0.80;1.00
13642;DHT22;6894;52.196;9.904;2023-03-16T03:10:57;0.80;1.00
13642;DHT22;6894;52.196;9.904;2023-03-16T03:13:24;0.70;1.00
13642;DHT22;6894;52.196;9.904;2023-03-16T03:15:50;0.80;1.00
13642;DHT22;6894;52.196;9.904;2023-03-16T03:18:18;0.80;1.00
13642;DHT22;6894;52.196;9.904;2023-03-16T03:20:44;0.90;1.00
13642;DHT22;6894;52.196;9.904;2023-03-16T03:23:12;0.90;1.00
13642;DHT22;6894;52.196;9.904;2023-03-16T03:25:40;1.10;1.00
13642;DHT22;6894;52.196;9.904;2023-03-16T03:28:07;1.00;1.00
13642;DHT22;6894;52.196;9.904;2023-03-16T03:30:34;1.00;1.00
13642;DHT22;6894;52.196;9.904;2023-03-16T03:33:01;1.20;1.00
13642;DHT22;6894;52.196;9.904;2023-03-16T03:35:28;1.10;1.00
13642;DHT22;6894;52.196;9.904;2023-03-16T03:37:56;1.10;1.00
13642;DHT22;6894;52.196;9.904;2023-03-16T03:40:24;1.20;1.00
13642;DHT22;6894;52.196;9.904;2023-03-16T03:42:51;1.20;1.00
13642;DHT22;6894;52.196;9.904;2023-03-16T03:45:18;1.10;1.00
13642;DHT22;6894;52.196;9.904;2023-03-16T03:47:45;1.20;1.00
13642;DHT22;6894;52.196;9.904;2023-03-16T03:50:12;1.20;1.00
13642;DHT22;6894;52.196;9.904;2023-03-16T03:52:39;1.20;1.00
13642;DHT22;6894;52.196;9.904;2023-03-16T03:55:07;1.20;1.00
13642;DHT22;6894;52.196;9.904;2023-03-16T03:57:35;1.30;1.00
13642;DHT22;6894;52.196;9.904;2023-03-16T04:00:03;1.30;1.00
13642;DHT22;6894;52.196;9.904;2023-03-16T04:02:32;1.40;99.90
13642;DHT22;6894;52.196;9.904;2023-03-16T04:04:59;1.40;99.90
13642;DHT22;6894;52.196;9.904;2023-03-16T04:07:25;1.40;99.90
13642;DHT22;6894;52.196;9.904;2023-03-16T04:09:52;1.50;99.90
13642;DHT22;6894;52.196;9.904;2023-03-16T04:12:19;1.50;99.90
13642;DHT22;6894;52.196;9.904;2023-03-16T04:14:47;1.40;99.90
13642;DHT22;6894;52.196;9.904;2023-03-16T04:17:13;1.40;99.90
13642;DHT22;6894;52.196;9.904;2023-03-16T04:19:40;1.40;99.90
13642;DHT22;6894;52.196;9.904;2023-03-16T04:22:07;1.30;99.90
13642;DHT22;6894;52.196;9.904;2023-03-16T04:24:34;1.30;1.00
13642;DHT22;6894;52.196;9.904;2023-03-16T04:27:01;1.30;1.00
13642;DHT22;6894;52.196;9.904;2023-03-16T04:29:27;1.20;1.00
13642;DHT22;6894;52.196;9.904;2023-03-16T04:31:56;1.20;1.00
13642;DHT22;6894;52.196;9.904;2023-03-16T04:34:22;1.20;1.00
13642;DHT22;6894;52.196;9.904;2023-03-16T04:36:49;1.20;1.00
13642;DHT22;6894;52.196;9.904;2023-03-16T04:39:16;1.10;1.00
13642;DHT22;6894;52.196;9.904;2023-03-16T04:41:43;1.10;1.00
13642;DHT22;6894;52.196;9.904;2023-03-16T04:44:10;1.10;1.00
13642;DHT22;6894;52.196;9.904;2023-03-16T04:46:37;1.10;1.00
13642;DHT22;6894;52.196;9.904;2023-03-16T04:49:05;1.10;1.00
13642;DHT22;6894;52.196;9.904;2023-03-16T04:51:34;1.10;1.00
13642;DHT22;6894;52.196;9.904;2023-03-16T04:54:01;1.00;1.00
13642;DHT22;6894;52.196;9.904;2023-03-16T04:56:27;1.00;1.00
13642;DHT22;6894;52.196;9.904;2023-03-16T04:58:54;1.00;1.00
13642;DHT22;6894;52.196;9.904;2023-03-16T05:01:22;1.00;1.00
13642;DHT22;6894;52.196;9.904;2023-03-16T05:03:49;1.00;1.00
13642;DHT22;6894;52.196;9.904;2023-03-16T05:06:18;1.00;1.00
13642;DHT22;6894;52.196;9.904;2023-03-16T05:08:45;0.90;1.00
13642;DHT22;6894;52.196;9.904;2023-03-16T05:11:12;1.00;1.00
13642;DHT22;6894;52.196;9.904;2023-03-16T05:13:38;0.90;1.00
13642;DHT22;6894;52.196;9.904;2023-03-16T05:16:06;0.90;1.00
13642;DHT22;6894;52.196;9.904;2023-03-16T05:18:32;0.80;1.00
13642;DHT22;6894;52.196;9.904;2023-03-16T05:20:59;0.80;1.00
13642;DHT22;6894;52.196;9.904;2023-03-16T05:23:27;0.80;1.00
13642;DHT22;6894;52.196;9.904;2023-03-16T05:25:54;0.80;1.00
13642;DHT22;6894;52.196;9.904;2023-03-16T05:28:24;0.70;1.00
13642;DHT22;6894;52.196;9.904;2023-03-16T05:30:50;1.00;1.00
13642;DHT22;6894;52.196;9.904;2023-03-16T05:33:17;0.80;1.00
13642;DHT22;6894;52.196;9.904;2023-03-16T05:35:44;0.80;1.00
13642;DHT22;6894;52.196;9.904;2023-03-16T05:38:11;0.90;1.00
13642;DHT22;6894;52.196;9.904;2023-03-16T05:40:39;0.90;1.00
13642;DHT22;6894;52.196;9.904;2023-03-16T05:43:07;1.00;1.00
13642;DHT22;6894;52.196;9.904;2023-03-16T05:45:33;1.00;1.00
13642;DHT22;6894;52.196;9.904;2023-03-16T05:48:00;1.00;1.00
13642;DHT22;6894;52.196;9.904;2023-03-16T05:50:27;1.10;1.00
13642;DHT22;6894;52.196;9.904;2023-03-16T05:52:53;1.10;1.00
13642;DHT22;6894;52.196;9.904;2023-03-16T05:55:20;1.10;1.00
13642;DHT22;6894;52.196;9.904;2023-03-16T05:57:49;1.10;1.00
13642;DHT22;6894;52.196;9.904;2023-03-16T06:00:16;1.20;1.00
13642;DHT22;6894;52.196;9.904;2023-03-16T06:02:45;1.30;1.00
13642;DHT22;6894;52.196;9.904;2023-03-16T06:05:13;1.40;1.00
13642;DHT22;6894;52.196;9.904;2023-03-16T06:07:40;1.40;1.00
13642;DHT22;6894;52.196;9.904;2023-03-16T06:10:08;1.50;1.00
13642;DHT22;6894;52.196;9.904;2023-03-16T06:12:34;1.60;1.00
13642;DHT22;6894;52.196;9.904;2023-03-16T06:15:04;1.70;1.00
13642;DHT22;6894;52.196;9.904;2023-03-16T06:17:31;1.90;1.00
13642;DHT22;6894;52.196;9.904;2023-03-16T06:19:58;2.00;1.00
13642;DHT22;6894;52.196;9.904;2023-03-16T06:22:25;2.10;1.00
13642;DHT22;6894;52.196;9.904;2023-03-16T06:24:54;2.20;1.00
13642;DHT22;6894;52.196;9.904;2023-03-16T06:27:21;2.20;1.00
13642;DHT22;6894;52.196;9.904;2023-03-16T06:29:50;2.30;1.00
13642;DHT22;6894;52.196;9.904;2023-03-16T06:32:18;2.40;1.00
13642;DHT22;6894;52.196;9.904;2023-03-16T06:34:46;2.50;1.00
13642;DHT22;6894;52.196;9.904;2023-03-16T06:37:13;2.50;99.90
13642;DHT22;6894;52.196;9.904;2023-03-16T06:39:39;2.60;99.90
13642;DHT22;6894;52.196;9.904;2023-03-16T06:42:06;2.60;99.90
13642;DHT22;6894;52.196;9.904;2023-03-16T06:44:33;2.80;99.90
13642;DHT22;6894;52.196;9.904;2023-03-16T06:47:00;2.80;99.90
13642;DHT22;6894;52.196;9.904;2023-03-16T06:49:28;2.90;90.10
13642;DHT22;6894;52.196;9.904;2023-03-16T06:51:55;3.00;1.00
13642;DHT22;6894;52.196;9.904;2023-03-16T06:54:23;3.10;1.00
13642;DHT22;6894;52.196;9.904;2023-03-16T06:56:50;3.10;1.00
13642;DHT22;6894;52.196;9.904;2023-03-16T06:59:16;3.30;1.00
13642;DHT22;6894;52.196;9.904;2023-03-16T07:01:43;3.40;1.00
13642;DHT22;6894;52.196;9.904;2023-03-16T07:04:10;3.40;99.90
13642;DHT22;6894;52.196;9.904;2023-03-16T07:06:39;3.50;1.00
13642;DHT22;6894;52.196;9.904;2023-03-16T07:09:05;3.60;1.00
13642;DHT22;6894;52.196;9.904;2023-03-16T07:11:32;3.70;1.00
13642;DHT22;6894;52.196;9.904;2023-03-16T07:13:59;3.70;1.00
13642;DHT22;6894;52.196;9.904;2023-03-16T07:16:26;3.80;1.00
13642;DHT22;6894;52.196;9.904;2023-03-16T07:18:52;3.90;99.90
13642;DHT22;6894;52.196;9.904;2023-03-16T07:21:19;3.90;99.90
13642;DHT22;6894;52.196;9.904;2023-03-16T07:23:48;4.00;1.00
13642;DHT22;6894;52.196;9.904;2023-03-16T07:26:15;4.10;1.00
13642;DHT22;6894;52.196;9.904;2023-03-16T07:28:41;4.20;1.00
13642;DHT22;6894;52.196;9.904;2023-03-16T07:31:09;4.20;99.90
13642;DHT22;6894;52.196;9.904;2023-03-16T07:33:37;4.80;1.00
13642;DHT22;6894;52.196;9.904;2023-03-16T07:36:05;4.30;1.00
13642;DHT22;6894;52.196;9.904;2023-03-16T07:38:33;4.40;99.90
13642;DHT22;6894;52.196;9.904;2023-03-16T07:41:02;4.40;1.00
13642;DHT22;6894;52.196;9.904;2023-03-16T07:43:28;4.40;1.00
13642;DHT22;6894;52.196;9.904;2023-03-16T07:45:55;4.40;99.90
13642;DHT22;6894;52.196;9.904;2023-03-16T07:48:22;4.40;99.90
13642;DHT22;6894;52.196;9.904;2023-03-16T07:50:49;4.50;99.90
13642;DHT22;6894;52.196;9.904;2023-03-16T07:53:16;4.50;1.00
13642;DHT22;6894;52.196;9.904;2023-03-16T07:55:43;4.60;1.00
13642;DHT22;6894;52.196;9.904;2023-03-16T07:58:11;4.60;99.90
13642;DHT22;6894;52.196;9.904;2023-03-16T08:00:39;4.70;89.10
13642;DHT22;6894;52.196;9.904;2023-03-16T08:03:06;4.80;1.00
13642;DHT22;6894;52.196;9.904;2023-03-16T08:05:33;5.00;99.90
13642;DHT22;6894;52.196;9.904;2023-03-16T08:08:00;5.10;99.90
13642;DHT22;6894;52.196;9.904;2023-03-16T08:10:27;5.10;1.00
13642;DHT22;6894;52.196;9.904;2023-03-16T08:12:54;5.40;1.00
13642;DHT22;6894;52.196;9.904;2023-03-16T08:15:22;5.50;1.00
13642;DHT22;6894;52.196;9.904;2023-03-16T08:17:49;5.50;1.00
13642;DHT22;6894;52.196;9.904;2023-03-16T08:20:17;5.50;1.00
13642;DHT22;6894;52.196;9.904;2023-03-16T08:22:44;5.60;99.90
13642;DHT22;6894;52.196;9.904;2023-03-16T08:25:12;5.60;99.90
13642;DHT22;6894;52.196;9.904;2023-03-16T08:27:39;5.60;1.00
13642;DHT22;6894;52.196;9.904;2023-03-16T08:30:09;5.70;1.00
13642;DHT22;6894;52.196;9.904;2023-03-16T08:32:38;5.90;1.00
13642;DHT22;6894;52.196;9.904;2023-03-16T08:35:06;5.90;1.00
13642;DHT22;6894;52.196;9.904;2023-03-16T08:37:33;6.10;1.00
13642;DHT22;6894;52.196;9.904;2023-03-16T08:40:00;6.30;1.00
13642;DHT22;6894;52.196;9.904;2023-03-16T08:42:30;6.50;1.00
13642;DHT22;6894;52.196;9.904;2023-03-16T08:44:57;6.50;1.00
13642;DHT22;6894;52.196;9.904;2023-03-16T08:47:25;6.50;99.90
13642;DHT22;6894;52.196;9.904;2023-03-16T08:49:53;6.50;99.90
13642;DHT22;6894;52.196;9.904;2023-03-16T08:52:20;6.70;99.90
13642;DHT22;6894;52.196;9.904;2023-03-16T08:54:48;6.80;99.90
13642;DHT22;6894;52.196;9.904;2023-03-16T08:57:14;7.00;99.90
13642;DHT22;6894;52.196;9.904;2023-03-16T08:59:41;7.10;50.00
13642;DHT22;6894;52.196;9.904;2023-03-16T09:02:11;7.10;88.00
13642;DHT22;6894;52.196;9.904;2023-03-16T09:04:38;7.30;23.50
13642;DHT22;6894;52.196;9.904;2023-03-16T09:07:06;7.30;1.00
13642;DHT22;6894;52.196;9.904;2023-03-16T09:09:34;7.40;1.00
13642;DHT22;6894;52.196;9.904;2023-03-16T09:12:01;7.50;1.00
13642;DHT22;6894;52.196;9.904;2023-03-16T09:14:28;7.60;1.00
13642;DHT22;6894;52.196;9.904;2023-03-16T09:16:55;7.70;1.00
13642;DHT22;6894;52.196;9.904;2023-03-16T09:19:22;7.70;1.00
13642;DHT22;6894;52.196;9.904;2023-03-16T09:21:49;7.80;1.00
13642;DHT22;6894;52.196;9.904;2023-03-16T09:24:17;7.80;1.00
13642;DHT22;6894;52.196;9.904;2023-03-16T09:26:44;8.00;1.00
13642;DHT22;6894;52.196;9.904;2023-03-16T09:29:10;8.10;1.00
13642;DHT22;6894;52.196;9.904;2023-03-16T09:31:37;8.10;1.00
13642;DHT22;6894;52.196;9.904;2023-03-16T09:34:04;8.00;1.00
13642;DHT22;6894;52.196;9.904;2023-03-16T09:36:30;8.00;1.00
13642;DHT22;6894;52.196;9.904;2023-03-16T09:38:58;8.20;1.00
13642;DHT22;6894;52.196;9.904;2023-03-16T09:41:33;8.30;1.00
13642;DHT22;6894;52.196;9.904;2023-03-16T09:44:09;8.30;1.00
13642;DHT22;6894;52.196;9.904;2023-03-16T09:46:44;8.00;1.00
13642;DHT22;6894;52.196;9.904;2023-03-16T09:49:16;7.80;1.00
13642;DHT22;6894;52.196;9.904;2023-03-16T09:51:47;7.70;1.00
13642;DHT22;6894;52.196;9.904;2023-03-16T09:54:22;7.60;1.00
13642;DHT22;6894;52.196;9.904;2023-03-16T09:56:53;7.70;1.00
13642;DHT22;6894;52.196;9.904;2023-03-16T09:59:21;7.90;1.00
13642;DHT22;6894;52.196;9.904;2023-03-16T10:02:01;8.00;1.00
13642;DHT22;6894;52.196;9.904;2023-03-16T10:04:39;8.10;1.00
13642;DHT22;6894;52.196;9.904;2023-03-16T10:07:23;8.10;1.00
13642;DHT22;6894;52.196;9.904;2023-03-16T10:09:55;8.20;1.00
13642;DHT22;6894;52.196;9.904;2023-03-16T10:12:29;8.10;99.90
13642;DHT22;6894;52.196;9.904;2023-03-16T10:15:02;8.20;99.90
13642;DHT22;6894;52.196;9.904;2023-03-16T10:17:36;8.40;99.90
13642;DHT22;6894;52.196;9.904;2023-03-16T10:20:06;8.50;99.90
13642;DHT22;6894;52.196;9.904;2023-03-16T10:22:36;8.60;99.90
13642;DHT22;6894;52.196;9.904;2023-03-16T10:25:10;8.60;99.90
13642;DHT22;6894;52.196;9.904;2023-03-16T10:27:43;8.60;99.90
13642;DHT22;6894;52.196;9.904;2023-03-16T10:30:22;8.80;99.90
13642;DHT22;6894;52.196;9.904;2023-03-16T10:32:50;8.90;99.90
13642;DHT22;6894;52.196;9.904;2023-03-16T10:35:33;9.00;99.90
13642;DHT22;6894;52.196;9.904;2023-03-16T10:38:06;9.20;99.90
13642;DHT22;6894;52.196;9.904;2023-03-16T10:40:37;9.30;99.90
13642;DHT22;6894;52.196;9.904;2023-03-16T10:43:07;9.20;99.90
13642;DHT22;6894;52.196;9.904;2023-03-16T10:45:41;9.30;99.90
13642;DHT22;6894;52.196;9.904;2023-03-16T10:48:13;9.60;99.90
13642;DHT22;6894;52.196;9.904;2023-03-16T10:50:43;9.50;99.90
13642;DHT22;6894;52.196;9.904;2023-03-16T10:53:17;9.40;99.90
13642;DHT22;6894;52.196;9.904;2023-03-16T10:55:46;9.40;99.90
13642;DHT22;6894;52.196;9.904;2023-03-16T10:58:28;9.60;99.90
13642;DHT22;6894;52.196;9.904;2023-03-16T11:00:57;9.70;99.90
13642;DHT22;6894;52.196;9.904;2023-03-16T11:03:26;9.60;99.90
13642;DHT22;6894;52.196;9.904;2023-03-16T11:05:58;9.70;99.90
13642;DHT22;6894;52.196;9.904;2023-03-16T11:08:29;9.60;99.90
13642;DHT22;6894;52.196;9.904;2023-03-16T11:11:07;9.60;99.90
13642;DHT22;6894;52.196;9.904;2023-03-16T11:13:37;9.90;99.90
13642;DHT22;6894;52.196;9.904;2023-03-16T11:16:16;9.80;99.90
13642;DHT22;6894;52.196;9.904;2023-03-16T11:18:49;9.90;99.90
13642;DHT22;6894;52.196;9.904;2023-03-16T11:21:29;10.00;99.90
13642;DHT22;6894;52.196;9.904;2023-03-16T11:24:02;9.90;99.90
13642;DHT22;6894;52.196;9.904;2023-03-16T11:26:34;9.90;99.90
13642;DHT22;6894;52.196;9.904;2023-03-16T11:29:08;9.90;97.80
13642;DHT22;6894;52.196;9.904;2023-03-16T11:31:40;9.70;88.70
13642;DHT22;6894;52.196;9.904;2023-03-16T11:34:14;9.80;99.90
13642;DHT22;6894;52.196;9.904;2023-03-16T11:36:46;10.00;99.90
13642;DHT22;6894;52.196;9.904;2023-03-16T11:39:29;10.10;37.20
13642;DHT22;6894;52.196;9.904;2023-03-16T11:42:03;10.10;99.90
13642;DHT22;6894;52.196;9.904;2023-03-16T11:44:41;10.10;43.00
13642;DHT22;6894;52.196;9.904;2023-03-16T11:47:39;10.30;99.90
13642;DHT22;6894;52.196;9.904;2023-03-16T11:50:14;10.50;23.30
13642;DHT22;6894;52.196;9.904;2023-03-16T11:52:48;10.50;23.10
13642;DHT22;6894;52.196;9.904;2023-03-16T11:55:27;10.60;1.00
13642;DHT22;6894;52.196;9.904;2023-03-16T11:58:06;10.30;68.30
13642;DHT22;6894;52.196;9.904;2023-03-16T12:00:46;10.20;99.90
13642;DHT22;6894;52.196;9.904;2023-03-16T12:03:35;10.30;99.90
13642;DHT22;6894;52.196;9.904;2023-03-16T12:06:12;10.60;99.90
13642;DHT22;6894;52.196;9.904;2023-03-16T12:09:07;10.70;29.00
13642;DHT22;6894;52.196;9.904;2023-03-16T12:11:41;10.40;7.40
13642;DHT22;6894;52.196;9.904;2023-03-16T12:14:14;10.40;2.80
13642;DHT22;6894;52.196;9.904;2023-03-16T12:16:46;10.70;78.10
13642;DHT22;6894;52.196;9.904;2023-03-16T12:19:18;11.10;1.00
13642;DHT22;6894;52.196;9.904;2023-03-16T12:21:50;11.60;45.80
13642;DHT22;6894;52.196;9.904;2023-03-16T12:24:19;11.50;1.00
13642;DHT22;6894;52.196;9.904;2023-03-16T12:26:49;11.40;7.60
13642;DHT22;6894;52.196;9.904;2023-03-16T12:29:23;11.30;1.00
13642;DHT22;6894;52.196;9.904;2023-03-16T12:31:57;11.40;1.00
13642;DHT22;6894;52.196;9.904;2023-03-16T12:34:28;11.30;1.00
13642;DHT22;6894;52.196;9.904;2023-03-16T12:37:11;11.10;1.00
13642;DHT22;6894;52.196;9.904;2023-03-16T12:40:06;10.80;1.00
13642;DHT22;6894;52.196;9.904;2023-03-16T12:42:48;10.50;1.00
13642;DHT22;6894;52.196;9.904;2023-03-16T12:45:25;10.30;1.00
13642;DHT22;6894;52.196;9.904;2023-03-16T12:48:00;10.30;1.00
13642;DHT22;6894;52.196;9.904;2023-03-16T12:50:28;10.40;1.00
13642;DHT22;6894;52.196;9.904;2023-03-16T12:52:56;10.50;1.00
13642;DHT22;6894;52.196;9.904;2023-03-16T12:55:25;10.60;1.00
13642;DHT22;6894;52.196;9.904;2023-03-16T12:57:59;11.00;1.00
13642;DHT22;6894;52.196;9.904;2023-03-16T13:00:32;10.60;1.00
13642;DHT22;6894;52.196;9.904;2023-03-16T13:03:01;10.50;1.00
13642;DHT22;6894;52.196;9.904;2023-03-16T13:05:31;10.40;1.00
13642;DHT22;6894;52.196;9.904;2023-03-16T13:08:10;10.30;1.00
13642;DHT22;6894;52.196;9.904;2023-03-16T13:10:38;10.10;1.00
13642;DHT22;6894;52.196;9.904;2023-03-16T13:13:10;10.00;1.00
13642;DHT22;6894;52.196;9.904;2023-03-16T13:15:39;9.90;1.00
13642;DHT22;6894;52.196;9.904;2023-03-16T13:18:22;9.90;1.00
13642;DHT22;6894;52.196;9.904;2023-03-16T13:20:53;9.80;1.00
13642;DHT22;6894;52.196;9.904;2023-03-16T13:23:23;9.80;1.00
13642;DHT22;6894;52.196;9.904;2023-03-16T13:26:09;9.70;1.00
13642;DHT22;6894;52.196;9.904;2023-03-16T13:28:38;9.70;1.00
13642;DHT22;6894;52.196;9.904;2023-03-16T13:31:19;9.80;1.00
13642;DHT22;6894;52.196;9.904;2023-03-16T13:33:49;9.80;1.00
13642;DHT22;6894;52.196;9.904;2023-03-16T13:36:18;9.80;1.00
13642;DHT22;6894;52.196;9.904;2023-03-16T13:39:00;9.80;1.00
13642;DHT22;6894;52.196;9.904;2023-03-16T13:41:28;9.80;1.00
13642;DHT22;6894;52.196;9.904;2023-03-16T13:43:55;9.80;1.00
13642;DHT22;6894;52.196;9.904;2023-03-16T13:46:27;9.70;1.00
13642;DHT22;6894;52.196;9.904;2023-03-16T13:48:58;9.70;1.00
13642;DHT22;6894;52.196;9.904;2023-03-16T13:51:25;9.70;1.00
13642;DHT22;6894;52.196;9.904;2023-03-16T13:53:55;9.80;1.00
13642;DHT22;6894;52.196;9.904;2023-03-16T13:56:24;10.00;1.00
13642;DHT22;6894;52.196;9.904;2023-03-16T13:58:55;10.10;1.00
13642;DHT22;6894;52.196;9.904;2023-03-16T14:01:25;10.10;1.00
13642;DHT22;6894;52.196;9.904;2023-03-16T14:03:54;10.20;1.00
13642;DHT22;6894;52.196;9.904;2023-03-16T14:06:25;10.00;1.00
13642;DHT22;6894;52.196;9.904;2023-03-16T14:08:55;9.90;1.00
13642;DHT22;6894;52.196;9.904;2023-03-16T14:11:25;9.90;1.00
13642;DHT22;6894;52.196;9.904;2023-03-16T14:13:55;9.80;1.00
13642;DHT22;6894;52.196;9.904;2023-03-16T14:16:23;9.80;1.00
13642;DHT22;6894;52.196;9.904;2023-03-16T14:18:53;9.80;1.00
13642;DHT22;6894;52.196;9.904;2023-03-16T14:21:24;9.80;1.00
13642;DHT22;6894;52.196;9.904;2023-03-16T14:23:52;9.80;20.20
13642;DHT22;6894;52.196;9.904;2023-03-16T14:26:20;9.90;1.00
13642;DHT22;6894;52.196;9.904;2023-03-16T14:28:56;9.80;1.00
13642;DHT22;6894;52.196;9.904;2023-03-16T14:31:31;9.80;1.00
13642;DHT22;6894;52.196;9.904;2023-03-16T14:34:00;9.80;29.60
13642;DHT22;6894;52.196;9.904;2023-03-16T14:36:35;9.80;1.00
13642;DHT22;6894;52.196;9.904;2023-03-16T14:39:10;9.60;1.00
13642;DHT22;6894;52.196;9.904;2023-03-16T14:41:37;9.50;1.00
13642;DHT22;6894;52.196;9.904;2023-03-16T14:44:05;9.50;1.00
13642;DHT22;6894;52.196;9.904;2023-03-16T14:46:41;9.40;1.00
13642;DHT22;6894;52.196;9.904;2023-03-16T14:49:17;9.40;1.00
13642;DHT22;6894;52.196;9.904;2023-03-16T14:51:47;9.50;1.00
13642;DHT22;6894;52.196;9.904;2023-03-16T14:54:16;9.50;1.00
13642;DHT22;6894;52.196;9.904;2023-03-16T14:56:46;9.50;11.40
13642;DHT22;6894;52.196;9.904;2023-03-16T14:59:13;9.50;15.40
13642;DHT22;6894;52.196;9.904;2023-03-16T15:01:40;9.50;5.20
13642;DHT22;6894;52.196;9.904;2023-03-16T15:04:11;9.50;17.30
13642;DHT22;6894;52.196;9.904;2023-03-16T15:06:38;9.50;22.10
13642;DHT22;6894;52.196;9.904;2023-03-16T15:09:21;9.40;86.40
13642;DHT22;6894;52.196;9.904;2023-03-16T15:11:52;9.50;58.00
13642;DHT22;6894;52.196;9.904;2023-03-16T15:14:20;9.50;46.60
13642;DHT22;6894;52.196;9.904;2023-03-16T15:17:14;9.40;43.30
13642;DHT22;6894;52.196;9.904;2023-03-16T15:19:44;9.30;63.90
13642;DHT22;6894;52.196;9.904;2023-03-16T15:22:11;9.20;38.50
13642;DHT22;6894;52.196;9.904;2023-03-16T15:24:40;9.20;61.10
13642;DHT22;6894;52.196;9.904;2023-03-16T15:27:17;9.30;26.50
13642;DHT22;6894;52.196;9.904;2023-03-16T15:29:44;9.30;18.80
13642;DHT22;6894;52.196;9.904;2023-03-16T15:32:12;9.30;75.20
13642;DHT22;6894;52.196;9.904;2023-03-16T15:34:43;9.30;98.10
13642;DHT22;6894;52.196;9.904;2023-03-16T15:37:12;9.40;31.80
13642;DHT22;6894;52.196;9.904;2023-03-16T15:39:41;9.40;49.10
13642;DHT22;6894;52.196;9.904;2023-03-16T15:42:12;9.40;39.00
13642;DHT22;6894;52.196;9.904;2023-03-16T15:44:40;9.40;12.50
13642;DHT22;6894;52.196;9.904;2023-03-16T15:47:06;9.40;61.00
13642;DHT22;6894;52.196;9.904;2023-03-16T15:49:33;9.40;1.00
13642;DHT22;6894;52.196;9.904;2023-03-16T15:52:00;9.40;1.00
13642;DHT22;6894;52.196;9.904;2023-03-16T15:54:27;9.40;1.00
13642;DHT22;6894;52.196;9.904;2023-03-16T15:56:55;9.50;1.00
13642;DHT22;6894;52.196;9.904;2023-03-16T15:59:23;9.40;1.00
13642;DHT22;6894;52.196;9.904;2023-03-16T16:01:51;9.40;1.00
13642;DHT22;6894;52.196;9.904;2023-03-16T16:04:21;9.40;1.00
13642;DHT22;6894;52.196;9.904;2023-03-16T16:06:51;9.40;1.00
13642;DHT22;6894;52.196;9.904;2023-03-16T16:09:19;9.40;1.00
13642;DHT22;6894;52.196;9.904;2023-03-16T16:11:47;9.30;1.00
13642;DHT22;6894;52.196;9.904;2023-03-16T16:14:22;9.30;1.00
13642;DHT22;6894;52.196;9.904;2023-03-16T16:16:49;9.30;1.00
13642;DHT22;6894;52.196;9.904;2023-03-16T16:19:18;9.30;1.00
13642;DHT22;6894;52.196;9.904;2023-03-16T16:21:47;9.30;1.00
13642;DHT22;6894;52.196;9.904;2023-03-16T16:24:14;9.30;1.00
13642;DHT22;6894;52.196;9.904;2023-03-16T16:26:43;9.30;1.00